Time;durP1;ratioP1;P1;durP2;ratioP2;P2;SDS_P1;SDS_P2;PMS_P1;PMS_P2;Temp;Humidity;BMP_temperature;BMP_pressure;BME280_temperature;BME280_humidity;BME280_pressure;Samples;Min_cycle;Max_cycle;Signal;HPM_P1;HPM_P2
2021/03/11 00:01:41;;;;;;;97.85;56.67;;;17.50;53.20;;;;;;5073543;28;20032;-51
2021/03/11 00:04:07;;;;;;;97.75;56.78;;;17.50;53.20;;;;;;5073837;28;20025;-51
2021/03/11 00:06:33;;;;;;;96.85;55.47;;;17.40;53.40;;;;;;5073774;28;20377;-51
2021/03/11 00:08:58;;;;;;;93.60;55.05;;;17.40;53.40;;;;;;5073316;28;20032;-51
2021/03/11 00:11:24;;;;;;;93.30;53.38;;;17.40;54.20;;;;;;5072600;28;20025;-51
2021/03/11 00:13:49;;;;;;;87.80;53.50;;;17.40;53.50;;;;;;5074081;28;20028;-51
2021/03/11 00:16:15;;;;;;;87.50;51.95;;;17.30;53.80;;;;;;5073325;28;20430;-52
2021/03/11 00:18:41;;;;;;;85.22;51.25;;;17.30;53.50;;;;;;5073468;28;20021;-51
2021/03/11 00:21:06;;;;;;;87.43;49.55;;;17.30;53.50;;;;;;5073335;28;20032;-52
2021/03/11 00:23:33;;;;;;;87.57;49.53;;;17.30;53.70;;;;;;5073233;28;20379;-51
2021/03/11 00:25:58;;;;;;;81.43;49.75;;;17.30;53.60;;;;;;5073086;28;20128;-51
2021/03/11 00:28:24;;;;;;;87.70;50.15;;;17.20;53.70;;;;;;5073270;28;20108;-51
2021/03/11 00:30:50;;;;;;;82.32;47.83;;;17.20;54.20;;;;;;5073304;28;20037;-51
2021/03/11 00:33:16;;;;;;;79.97;48.22;;;17.20;53.70;;;;;;5073448;28;20472;-52
2021/03/11 00:35:41;;;;;;;80.05;49.17;;;17.20;53.70;;;;;;5073121;28;20028;-53
2021/03/11 00:38:07;;;;;;;79.85;47.85;;;17.30;53.50;;;;;;5073292;28;20086;-52
2021/03/11 00:40:33;;;;;;;80.45;48.40;;;17.30;53.70;;;;;;5073772;28;20028;-51
2021/03/11 00:43:00;;;;;;;78.47;46.35;;;17.30;53.40;;;;;;5073346;28;20546;-51
2021/03/11 00:45:26;;;;;;;76.30;45.13;;;17.40;53.30;;;;;;5073677;28;20044;-53
2021/03/11 00:47:51;;;;;;;73.55;43.80;;;17.40;53.40;;;;;;5073214;28;20032;-51
2021/03/11 00:50:20;;;;;;;73.55;43.67;;;17.30;53.40;;;;;;5072974;28;20032;-51
2021/03/11 00:52:45;;;;;;;73.40;44.17;;;17.30;53.30;;;;;;5073132;28;20147;-51
2021/03/11 00:55:12;;;;;;;73.22;44.05;;;17.30;53.30;;;;;;5073092;28;20120;-51
2021/03/11 00:57:40;;;;;;;73.60;43.75;;;17.20;53.50;;;;;;5073356;28;20392;-51
2021/03/11 01:00:08;;;;;;;73.20;43.97;;;17.20;53.60;;;;;;5073016;28;20051;-51
2021/03/11 01:02:34;;;;;;;68.78;40.47;;;17.10;53.80;;;;;;5073071;28;20036;-51
2021/03/11 01:05:00;;;;;;;67.20;41.50;;;17.10;54.00;;;;;;5073073;28;20028;-51
2021/03/11 01:07:25;;;;;;;67.85;41.20;;;17.10;54.10;;;;;;5072758;28;20055;-51
2021/03/11 01:09:51;;;;;;;68.40;41.10;;;17.10;54.20;;;;;;5073600;28;20028;-51
2021/03/11 01:12:17;;;;;;;67.10;41.13;;;17.10;54.20;;;;;;5072974;28;20032;-51
2021/03/11 01:14:43;;;;;;;68.78;40.90;;;17.00;54.30;;;;;;5072893;28;20037;-52
2021/03/11 01:17:10;;;;;;;67.32;40.22;;;17.00;54.30;;;;;;5072977;28;20032;-51
2021/03/11 01:19:37;;;;;;;64.57;39.28;;;17.00;54.30;;;;;;5072911;28;20074;-53
2021/03/11 01:22:03;;;;;;;65.03;39.08;;;17.00;54.40;;;;;;5073443;28;20047;-53
2021/03/11 01:24:30;;;;;;;67.93;39.80;;;17.00;54.40;;;;;;5076729;28;20032;-51
2021/03/11 01:26:56;;;;;;;64.97;38.92;;;17.00;54.50;;;;;;5076479;28;20044;-52
2021/03/11 01:29:22;;;;;;;64.55;38.75;;;16.90;54.50;;;;;;5076648;28;20078;-51
2021/03/11 01:31:47;;;;;;;55.83;35.60;;;16.90;54.30;;;;;;5076475;28;20021;-52
2021/03/11 01:34:13;;;;;;;55.58;35.33;;;16.90;54.20;;;;;;5076205;28;20024;-51
2021/03/11 01:36:39;;;;;;;58.15;36.17;;;17.00;54.30;;;;;;5076290;28;20028;-51
2021/03/11 01:39:05;;;;;;;58.03;34.50;;;17.00;54.10;;;;;;5076299;28;20085;-51
2021/03/11 01:41:31;;;;;;;58.90;35.28;;;17.10;53.80;;;;;;5076209;28;20024;-51
2021/03/11 01:43:57;;;;;;;59.80;35.67;;;17.30;53.80;;;;;;5076221;28;20039;-51
2021/03/11 01:46:24;;;;;;;53.13;33.05;;;17.40;53.30;;;;;;5076139;28;20024;-51
2021/03/11 01:48:50;;;;;;;55.67;33.20;;;17.70;52.90;;;;;;5075821;28;20138;-53
2021/03/11 01:51:17;;;;;;;55.90;33.45;;;17.80;52.80;;;;;;5076020;28;20085;-51
2021/03/11 01:53:43;;;;;;;49.53;29.88;;;17.80;52.80;;;;;;5075954;28;20024;-51
2021/03/11 01:56:08;;;;;;;54.13;31.80;;;17.80;52.70;;;;;;5075978;28;20032;-51
2021/03/11 01:58:34;;;;;;;56.30;32.08;;;17.90;52.70;;;;;;5076223;28;20020;-51
2021/03/11 02:01:00;;;;;;;51.40;31.88;;;17.90;52.50;;;;;;5075635;28;20479;-51
2021/03/11 02:03:26;;;;;;;45.22;28.17;;;17.90;52.50;;;;;;5075817;28;20107;-51
2021/03/11 02:05:51;;;;;;;54.55;31.83;;;18.00;52.50;;;;;;5076472;28;20115;-52
2021/03/11 02:08:17;;;;;;;51.08;29.92;;;17.90;52.60;;;;;;5076028;28;20025;-52
2021/03/11 02:10:43;;;;;;;48.65;29.77;;;17.90;52.50;;;;;;5075845;28;20021;-53
2021/03/11 02:13:53;;;;;;;52.30;30.25;;;18.00;52.50;;;;;;5075543;28;20357;-51
2021/03/11 02:16:30;;;;;;;50.58;29.35;;;17.90;52.50;;;;;;5033391;28;20505;-51
2021/03/11 02:19:03;;;;;;;49.90;28.83;;;17.90;52.60;;;;;;5033511;28;20033;-51
2021/03/11 02:21:36;;;;;;;42.10;26.60;;;17.90;52.60;;;;;;5059851;28;20123;-51
2021/03/11 02:24:20;;;;;;;46.03;27.35;;;17.90;52.70;;;;;;5075364;28;20020;-51
2021/03/11 02:27:23;;;;;;;47.35;28.20;;;17.90;52.80;;;;;;5075739;28;20048;-52
2021/03/11 02:29:51;;;;;;;42.13;26.45;;;17.90;52.80;;;;;;5075325;28;20036;-52
2021/03/11 02:32:18;;;;;;;41.65;26.27;;;17.90;52.80;;;;;;5075209;28;20473;-52
2021/03/11 02:34:50;;;;;;;43.45;27.25;;;17.90;52.80;;;;;;5073927;28;20121;-52
2021/03/11 02:37:23;;;;;;;40.05;24.23;;;17.80;52.80;;;;;;5075111;28;20032;-52
2021/03/11 02:40:01;;;;;;;43.28;26.63;;;17.80;52.90;;;;;;5075155;28;20456;-52
2021/03/11 02:42:28;;;;;;;38.00;24.67;;;17.80;52.90;;;;;;5075239;28;20033;-51
2021/03/11 02:44:54;;;;;;;41.13;25.20;;;17.90;52.80;;;;;;5074981;28;20029;-51
2021/03/11 02:47:21;;;;;;;40.38;24.10;;;17.90;52.80;;;;;;5074956;28;20035;-53
2021/03/11 02:49:48;;;;;;;39.22;25.25;;;17.90;52.80;;;;;;5074723;28;20380;-52
2021/03/11 02:52:15;;;;;;;39.70;23.35;;;17.90;52.90;;;;;;5075184;28;20112;-51
2021/03/11 02:54:41;;;;;;;38.60;23.33;;;17.90;53.00;;;;;;5074766;28;20036;-51
2021/03/11 02:57:10;;;;;;;38.38;23.42;;;17.80;53.00;;;;;;5074755;28;20523;-52
2021/03/11 02:59:36;;;;;;;34.97;21.65;;;17.80;53.00;;;;;;5074594;28;20028;-52
2021/03/11 03:02:03;;;;;;;39.83;23.42;;;17.70;53.10;;;;;;5075116;28;20044;-52
2021/03/11 03:04:30;;;;;;;36.22;23.55;;;17.70;53.20;;;;;;5075188;28;20032;-51
2021/03/11 03:07:00;;;;;;;37.15;22.40;;;17.60;53.20;;;;;;5074346;28;20032;-51
2021/03/11 03:09:27;;;;;;;34.65;23.33;;;17.60;53.30;;;;;;5074431;28;20021;-51
2021/03/11 03:11:55;;;;;;;37.13;21.15;;;17.60;53.20;;;;;;5074294;28;20543;-51
2021/03/11 03:14:21;;;;;;;32.05;21.85;;;17.60;53.40;;;;;;5074376;28;20082;-51
2021/03/11 03:16:49;;;;;;;38.25;21.65;;;17.50;53.40;;;;;;5074344;28;20036;-53
2021/03/11 03:19:15;;;;;;;35.70;21.88;;;17.50;53.30;;;;;;5074182;28;20384;-51
2021/03/11 03:21:46;;;;;;;33.92;21.52;;;17.50;53.30;;;;;;5074490;28;20027;-51
2021/03/11 03:24:14;;;;;;;34.08;20.75;;;17.50;53.30;;;;;;5074089;28;20048;-51
2021/03/11 03:26:40;;;;;;;34.00;21.85;;;17.50;53.20;;;;;;5074005;28;20052;-52
2021/03/11 03:29:06;;;;;;;33.13;19.83;;;17.50;53.20;;;;;;5074667;28;20032;-53
2021/03/11 03:31:32;;;;;;;35.72;20.88;;;17.50;53.20;;;;;;5074190;28;20033;-52
2021/03/11 03:33:58;;;;;;;31.95;20.63;;;17.50;53.20;;;;;;5073964;28;20033;-51
2021/03/11 03:36:24;;;;;;;32.58;19.92;;;17.50;53.30;;;;;;5073844;28;20476;-51
2021/03/11 03:38:50;;;;;;;33.42;20.83;;;17.40;53.30;;;;;;5073996;28;20029;-54
2021/03/11 03:41:17;;;;;;;29.60;18.67;;;17.40;53.40;;;;;;5073951;28;20031;-52
2021/03/11 03:43:45;;;;;;;28.48;17.95;;;17.40;53.50;;;;;;5074051;28;20024;-54
2021/03/11 03:46:15;;;;;;;29.35;18.98;;;17.40;53.50;;;;;;5073769;28;20482;-52
2021/03/11 03:48:44;;;;;;;30.98;18.02;;;17.40;53.50;;;;;;5073932;28;20109;-53
2021/03/11 03:51:11;;;;;;;29.08;17.15;;;17.40;53.20;;;;;;5073898;28;20064;-52
2021/03/11 03:53:45;;;;;;;32.47;19.67;;;17.40;53.30;;;;;;5073776;28;20119;-52
2021/03/11 03:56:22;;;;;;;28.30;17.88;;;17.50;53.30;;;;;;5073580;28;20040;-51
2021/03/11 03:58:51;;;;;;;32.13;18.38;;;17.40;53.30;;;;;;5073829;28;20066;-51
2021/03/11 04:01:18;;;;;;;27.95;18.05;;;17.40;53.30;;;;;;5073646;28;20477;-52
2021/03/11 04:03:46;;;;;;;30.52;17.58;;;17.40;53.30;;;;;;5073778;28;20016;-51
2021/03/11 04:06:13;;;;;;;33.08;16.92;;;17.40;53.30;;;;;;5073704;28;20085;-51
2021/03/11 04:08:42;;;;;;;29.02;16.85;;;17.30;53.50;;;;;;5073965;28;20031;-51
2021/03/11 04:11:08;;;;;;;26.75;17.30;;;17.30;53.60;;;;;;5073394;28;20103;-51
2021/03/11 04:13:34;;;;;;;25.30;16.67;;;17.20;53.70;;;;;;5073627;28;20116;-51
2021/03/11 04:16:00;;;;;;;25.02;16.98;;;17.20;53.70;;;;;;5073591;28;20388;-51
2021/03/11 04:18:27;;;;;;;26.70;15.90;;;17.20;53.80;;;;;;5073546;28;20027;-51
2021/03/11 04:20:54;;;;;;;27.33;15.57;;;17.20;53.90;;;;;;5074093;28;20036;-52
2021/03/11 04:23:21;;;;;;;27.67;16.95;;;17.10;53.90;;;;;;5073639;28;20035;-51
2021/03/11 04:25:47;;;;;;;28.60;15.65;;;17.10;54.00;;;;;;5073291;28;20136;-51
2021/03/11 04:28:13;;;;;;;25.00;16.30;;;17.10;53.90;;;;;;5073950;28;20040;-51
2021/03/11 04:30:40;;;;;;;27.90;16.17;;;17.10;54.00;;;;;;5073382;28;20025;-51
2021/03/11 04:33:06;;;;;;;24.48;14.88;;;17.00;54.00;;;;;;5073386;28;20112;-51
2021/03/11 04:35:32;;;;;;;25.85;16.23;;;17.00;54.00;;;;;;5073920;28;20376;-52
2021/03/11 04:37:58;;;;;;;26.02;15.20;;;17.00;54.10;;;;;;5073393;28;20035;-53
2021/03/11 04:40:24;;;;;;;26.35;14.98;;;17.00;54.20;;;;;;5073224;28;20483;-51
2021/03/11 04:42:50;;;;;;;24.10;14.02;;;17.00;54.30;;;;;;5073344;28;20029;-54
2021/03/11 04:45:16;;;;;;;22.27;14.38;;;17.00;54.20;;;;;;5073291;28;20491;-51
2021/03/11 04:47:42;;;;;;;24.58;14.93;;;17.10;54.10;;;;;;5073184;28;20024;-52
2021/03/11 04:50:09;;;;;;;22.83;12.98;;;17.20;53.80;;;;;;5073913;28;20071;-52
2021/03/11 04:52:36;;;;;;;22.17;13.40;;;17.40;53.30;;;;;;5073506;28;20028;-53
2021/03/11 04:55:04;;;;;;;21.05;13.43;;;17.60;52.90;;;;;;5073136;28;20052;-53
2021/03/11 04:57:30;;;;;;;23.52;13.68;;;17.80;52.70;;;;;;5074073;28;20495;-51
2021/03/11 04:59:57;;;;;;;21.58;13.02;;;17.90;52.40;;;;;;5076838;28;20345;-53
2021/03/11 05:02:29;;;;;;;20.42;12.57;;;18.00;52.40;;;;;;5076608;28;20468;-53
2021/03/11 05:04:54;;;;;;;22.42;12.90;;;18.00;52.40;;;;;;5076963;28;20032;-52
2021/03/11 05:07:20;;;;;;;21.63;13.98;;;18.10;52.30;;;;;;5076742;28;20116;-53
2021/03/11 05:09:46;;;;;;;21.52;12.43;;;18.20;52.10;;;;;;5076728;28;20051;-54
2021/03/11 05:12:12;;;;;;;21.15;12.00;;;18.20;51.90;;;;;;5076684;28;20028;-51
2021/03/11 05:14:37;;;;;;;17.75;11.43;;;18.30;51.60;;;;;;5076638;28;20032;-51
2021/03/11 05:17:03;;;;;;;20.00;11.63;;;18.40;51.40;;;;;;5076733;28;20461;-52
2021/03/11 05:19:29;;;;;;;18.48;11.70;;;18.50;51.30;;;;;;5076355;28;20376;-52
2021/03/11 05:21:55;;;;;;;21.85;12.25;;;18.60;51.20;;;;;;5076795;28;20028;-52
2021/03/11 05:24:20;;;;;;;19.45;11.77;;;18.60;51.00;;;;;;5076294;28;20078;-53
2021/03/11 05:26:46;;;;;;;19.83;12.05;;;18.70;51.00;;;;;;5076915;28;20480;-52
2021/03/11 05:29:12;;;;;;;18.65;11.52;;;18.70;50.80;;;;;;5076489;28;20028;-53
2021/03/11 05:31:37;;;;;;;17.17;10.82;;;18.80;50.70;;;;;;5076411;28;20021;-53
2021/03/11 05:34:03;;;;;;;18.95;11.57;;;18.90;50.60;;;;;;5076267;28;20032;-54
2021/03/11 05:36:29;;;;;;;19.52;11.63;;;19.00;50.40;;;;;;5076169;28;20036;-51
2021/03/11 05:38:55;;;;;;;16.25;10.52;;;19.10;50.20;;;;;;5076314;28;20029;-51
2021/03/11 05:41:22;;;;;;;18.25;11.02;;;19.10;50.10;;;;;;5076395;28;20522;-54
2021/03/11 05:43:50;;;;;;;20.88;11.13;;;19.20;50.00;;;;;;5076117;28;20036;-55
2021/03/11 05:46:18;;;;;;;17.88;10.05;;;19.30;50.50;;;;;;5076182;28;20025;-54
2021/03/11 05:48:44;;;;;;;19.65;11.15;;;19.30;49.80;;;;;;5076094;28;20107;-54
2021/03/11 05:51:11;;;;;;;19.80;11.18;;;19.30;50.30;;;;;;5076330;28;20028;-55
2021/03/11 05:53:37;;;;;;;17.75;9.80;;;19.20;49.90;;;;;;5076117;28;20029;-53
2021/03/11 05:56:04;;;;;;;16.75;10.00;;;19.10;50.40;;;;;;5076248;28;20067;-52
2021/03/11 05:58:30;;;;;;;16.80;10.50;;;19.10;50.60;;;;;;5075800;28;20025;-52
2021/03/11 06:00:57;;;;;;;16.20;10.38;;;19.10;50.70;;;;;;5075860;28;20029;-53
2021/03/11 06:03:26;;;;;;;17.58;9.35;;;19.10;50.80;;;;;;5075862;28;20062;-54
2021/03/11 06:05:53;;;;;;;17.98;10.07;;;19.10;50.90;;;;;;5075567;28;20064;-53
2021/03/11 06:08:22;;;;;;;14.00;9.38;;;19.00;50.80;;;;;;5075343;28;20548;-54
2021/03/11 06:10:55;;;;;;;15.57;9.75;;;19.00;50.70;;;;;;5075616;28;20535;-54
2021/03/11 06:13:25;;;;;;;17.10;9.65;;;19.00;50.60;;;;;;5075743;28;20396;-55
2021/03/11 06:16:11;;;;;;;;;;;19.00;50.60;;;;;;5076034;28;20028;-53
2021/03/11 06:18:38;;;;;;;15.75;9.35;;;19.00;50.60;;;;;;5075193;28;20393;-52
2021/03/11 06:21:04;;;;;;;11.98;7.75;;;19.00;50.70;;;;;;5075552;28;20031;-51
2021/03/11 06:23:30;;;;;;;13.60;8.27;;;18.90;50.80;;;;;;5075263;28;20020;-53
2021/03/11 06:25:57;;;;;;;12.55;8.88;;;18.90;50.90;;;;;;5074977;28;20044;-51
2021/03/11 06:28:49;;;;;;;13.98;8.65;;;18.80;51.00;;;;;;5075648;28;20032;-52
2021/03/11 06:31:36;;;;;;;16.65;8.93;;;18.80;51.00;;;;;;5075345;28;20029;-53
2021/03/11 06:34:02;;;;;;;14.52;8.63;;;18.70;51.00;;;;;;5075925;28;20060;-54
2021/03/11 06:36:31;;;;;;;13.93;8.27;;;18.70;51.20;;;;;;5074956;28;20495;-52
2021/03/11 06:38:58;;;;;;;13.40;8.35;;;18.60;51.30;;;;;;5075009;28;20027;-52
2021/03/11 06:41:24;;;;;;;12.77;7.65;;;18.60;51.40;;;;;;5075106;28;20024;-54
2021/03/11 06:43:59;;;;;;;15.00;8.85;;;18.60;51.90;;;;;;5075133;28;20443;-54
2021/03/11 06:46:27;;;;;;;18.98;10.07;;;18.60;52.10;;;;;;5074996;28;20029;-53
2021/03/11 06:49:11;;;;;;;15.02;9.27;;;18.60;53.20;;;;;;5074832;28;20128;-51
2021/03/11 06:51:37;;;;;;;15.18;8.73;;;18.60;52.60;;;;;;5075006;28;20123;-54
2021/03/11 06:54:04;;;;;;;14.82;8.77;;;18.60;52.10;;;;;;5074712;28;20033;-54
2021/03/11 06:56:30;;;;;;;19.98;9.15;;;18.60;52.00;;;;;;5074670;28;20059;-51
2021/03/11 06:58:58;;;;;;;14.73;8.75;;;18.60;51.10;;;;;;5074777;28;20028;-59
2021/03/11 07:01:25;;;;;;;19.13;9.48;;;18.60;51.10;;;;;;5074544;28;20043;-56
2021/03/11 07:03:51;;;;;;;28.40;10.73;;;18.60;51.30;;;;;;5075411;28;20103;-57
2021/03/11 07:06:32;;;;;;;49.50;29.88;;;18.60;50.70;;;;;;5074491;28;20115;-57
2021/03/11 07:08:59;;;;;;;50.58;31.73;;;18.70;49.80;;;;;;5076337;28;20057;-58
2021/03/11 07:11:26;;;;;;;64.97;34.72;;;18.60;48.00;;;;;;5086061;28;20028;-59
2021/03/11 07:13:53;;;;;;;66.70;38.65;;;18.40;48.40;;;;;;5094692;28;20032;-59
2021/03/11 07:16:24;;;;;;;81.50;44.47;;;18.20;47.90;;;;;;5073958;28;20028;-60
2021/03/11 07:19:17;;;;;;;84.28;51.25;;;18.20;46.40;;;;;;5074421;28;20480;-62
2021/03/11 07:21:45;;;;;;;74.85;42.40;;;18.00;45.80;;;;;;5073516;28;20384;-61
2021/03/11 07:24:13;;;;;;;67.03;37.65;;;18.00;44.80;;;;;;5074359;28;20028;-60
2021/03/11 07:26:58;;;;;;;61.17;35.28;;;17.90;45.50;;;;;;5073978;28;20414;-58
2021/03/11 07:29:24;;;;;;;49.47;29.70;;;17.90;46.30;;;;;;5069301;28;20032;-60
2021/03/11 07:31:58;;;;;;;42.45;22.60;;;17.80;45.90;;;;;;5074309;28;20033;-60
2021/03/11 07:34:29;;;;;;;45.78;21.45;;;17.70;46.00;;;;;;5074342;28;20174;-60
2021/03/11 07:36:59;;;;;;;27.58;17.30;;;17.60;46.00;;;;;;5074034;28;20063;-59
2021/03/11 07:39:30;;;;;;;27.85;16.63;;;17.50;45.80;;;;;;5074171;28;20464;-60
2021/03/11 07:41:58;;;;;;;118.57;76.10;;;17.50;45.60;;;;;;5073916;28;20028;-59
2021/03/11 07:44:24;;;;;;;169.70;99.57;;;17.50;45.30;;;;;;5074219;28;20058;-60
2021/03/11 07:46:50;;;;;;;253.05;138.30;;;17.40;44.70;;;;;;5074030;28;20117;-59
2021/03/11 07:49:16;;;;;;;184.20;105.65;;;17.40;44.30;;;;;;5073521;28;20447;-60
2021/03/11 07:51:42;;;;;;;141.60;75.93;;;17.30;43.10;;;;;;5073920;28;20114;-59
2021/03/11 07:54:08;;;;;;;115.15;61.80;;;17.30;43.30;;;;;;5073766;28;20024;-59
2021/03/11 07:56:34;;;;;;;103.57;53.67;;;17.30;43.90;;;;;;5072175;28;20395;-57
2021/03/11 07:59:04;;;;;;;123.90;68.88;;;17.30;44.10;;;;;;5073687;28;20115;-58
2021/03/11 08:01:36;;;;;;;121.55;66.68;;;17.30;44.80;;;;;;5073717;28;20025;-58
2021/03/11 08:04:02;;;;;;;113.38;64.82;;;17.40;45.80;;;;;;5073718;28;20086;-58
2021/03/11 08:06:29;;;;;;;104.78;60.55;;;17.40;45.50;;;;;;5073448;28;20021;-59
2021/03/11 08:08:55;;;;;;;98.75;56.70;;;17.50;45.50;;;;;;5073513;28;20048;-59
2021/03/11 08:11:36;;;;;;;98.07;54.53;;;17.50;46.00;;;;;;5073516;28;20078;-59
2021/03/11 08:14:24;;;;;;;90.20;49.30;;;17.60;46.10;;;;;;5074057;28;20385;-59
2021/03/11 08:16:51;;;;;;;86.55;48.45;;;17.60;46.30;;;;;;5073625;28;20108;-59
2021/03/11 08:19:35;;;;;;;83.10;44.70;;;17.60;46.40;;;;;;5073382;28;20426;-59
2021/03/11 08:22:02;;;;;;;74.25;44.55;;;17.60;46.70;;;;;;5073258;28;20025;-59
2021/03/11 08:24:48;;;;;;;77.53;45.88;;;17.60;46.90;;;;;;5073792;28;20056;-59
2021/03/11 08:27:28;;;;;;;74.40;41.92;;;17.50;47.20;;;;;;5073193;28;20053;-59
2021/03/11 08:29:54;;;;;;;72.25;40.13;;;17.50;47.50;;;;;;5073353;28;20382;-59
2021/03/11 08:32:51;;;;;;;71.82;39.95;;;17.40;47.60;;;;;;5074281;28;20025;-59
2021/03/11 08:35:26;;;;;;;58.92;36.53;;;17.40;47.80;;;;;;5077273;28;20040;-59
2021/03/11 08:37:52;;;;;;;60.67;36.70;;;17.40;48.00;;;;;;5077545;28;20090;-59
2021/03/11 08:40:38;;;;;;;65.80;38.33;;;17.40;48.30;;;;;;5077485;28;20025;-60
2021/03/11 08:43:04;;;;;;;60.67;34.75;;;17.40;48.40;;;;;;5077236;28;20081;-59
2021/03/11 08:45:39;;;;;;;59.88;35.78;;;17.40;48.60;;;;;;5077295;28;20036;-59
2021/03/11 08:48:14;;;;;;;60.47;35.08;;;17.30;48.90;;;;;;5076943;28;20035;-59
2021/03/11 08:50:42;;;;;;;60.30;34.10;;;17.30;48.90;;;;;;5077265;28;20033;-59
2021/03/11 08:53:07;;;;;;;59.28;34.88;;;17.30;49.10;;;;;;5077163;28;20027;-60
2021/03/11 08:55:38;;;;;;;55.72;31.58;;;17.40;49.00;;;;;;5076887;28;20103;-60
2021/03/11 08:58:25;;;;;;;52.15;29.65;;;17.40;48.90;;;;;;5077336;28;20048;-59
2021/03/11 09:00:57;;;;;;;53.30;30.85;;;17.40;48.80;;;;;;5076662;28;20063;-60
2021/03/11 09:03:42;;;;;;;50.15;31.67;;;17.50;48.80;;;;;;5076925;28;20024;-60
2021/03/11 09:06:09;;;;;;;55.08;29.95;;;17.50;48.90;;;;;;5077265;28;20028;-60
2021/03/11 09:08:36;;;;;;;47.13;28.30;;;17.50;48.90;;;;;;5076797;28;20028;-59
2021/03/11 09:11:14;;;;;;;50.30;29.77;;;17.50;48.80;;;;;;5076892;28;20082;-60
2021/03/11 09:13:41;;;;;;;46.13;28.00;;;17.40;48.70;;;;;;5077158;28;20029;-59
2021/03/11 09:16:08;;;;;;;49.33;29.48;;;17.40;48.70;;;;;;5076373;28;20395;-59
2021/03/11 09:18:34;;;;;;;56.95;28.48;;;17.30;49.30;;;;;;5073818;28;20021;-58
2021/03/11 09:21:01;;;;;;;58.47;27.02;;;17.30;50.10;;;;;;5071731;28;20587;-59
2021/03/11 09:23:39;;;;;;;47.00;27.15;;;17.30;49.80;;;;;;5070759;28;20029;-60
2021/03/11 09:26:05;;;;;;;48.58;26.13;;;17.20;50.00;;;;;;5072403;28;20134;-60
2021/03/11 09:28:32;;;;;;;54.83;26.42;;;17.20;50.10;;;;;;5074850;28;20556;-60
2021/03/11 09:30:58;;;;;;;53.45;27.48;;;17.20;50.10;;;;;;5075353;28;20119;-60
2021/03/11 09:33:24;;;;;;;45.35;24.85;;;17.10;50.60;;;;;;5072861;28;20112;-61
2021/03/11 09:35:52;;;;;;;43.03;24.40;;;17.10;50.30;;;;;;5074571;28;20042;-58
2021/03/11 09:38:27;;;;;;;44.42;26.13;;;17.10;50.70;;;;;;5075255;28;20032;-59
2021/03/11 09:40:58;;;;;;;43.83;23.85;;;17.10;50.60;;;;;;5074354;28;20032;-60
2021/03/11 09:43:35;;;;;;;42.38;23.63;;;17.20;50.60;;;;;;5074681;28;20029;-60
2021/03/11 09:46:17;;;;;;;40.35;23.55;;;17.20;50.30;;;;;;5075153;28;20384;-60
2021/03/11 09:48:48;;;;;;;37.75;21.98;;;17.20;50.10;;;;;;5074560;28;20056;-60
2021/03/11 09:51:14;;;;;;;49.35;22.83;;;17.20;50.60;;;;;;5075039;28;20028;-60
2021/03/11 09:53:51;;;;;;;37.67;22.05;;;17.30;50.00;;;;;;5075275;28;20034;-60
2021/03/11 09:56:18;;;;;;;38.83;22.45;;;17.30;50.10;;;;;;5073923;28;20403;-59
2021/03/11 09:58:51;;;;;;;38.75;22.02;;;17.20;50.10;;;;;;5074933;28;20081;-53
2021/03/11 10:01:35;;;;;;;42.50;21.13;;;17.30;50.20;;;;;;5074498;28;20484;-54
2021/03/11 10:04:11;;;;;;;131.57;68.38;;;17.20;50.00;;;;;;5074310;28;20056;-57
2021/03/11 10:06:46;;;;;;;193.65;104.85;;;17.20;50.10;;;;;;5074584;28;20040;-56
2021/03/11 10:09:12;;;;;;;246.05;134.80;;;17.10;50.60;;;;;;5074882;28;20032;-56
2021/03/11 10:11:43;;;;;;;318.20;167.15;;;17.20;50.80;;;;;;5074091;28;20029;-57
2021/03/11 10:14:20;;;;;;;339.30;177.77;;;17.20;50.80;;;;;;5074373;28;20025;-56
2021/03/11 10:16:48;;;;;;;251.32;135.50;;;17.30;50.80;;;;;;5077332;28;20028;-57
2021/03/11 10:19:17;;;;;;;213.07;114.20;;;17.30;50.80;;;;;;5068443;28;20035;-56
2021/03/11 10:21:52;;;;;;;192.75;106.75;;;17.40;50.60;;;;;;5074733;28;20029;-49
2021/03/11 10:24:35;;;;;;;179.43;97.43;;;17.60;50.30;;;;;;5074472;28;20365;-61
2021/03/11 10:27:03;;;;;;;167.25;90.88;;;17.70;50.20;;;;;;5051139;28;669791;-58
2021/03/11 10:29:33;;;;;;;151.05;83.13;;;17.80;49.80;;;;;;5075209;28;20120;-55
2021/03/11 10:32:02;;;;;;;136.80;73.65;;;17.90;49.80;;;;;;5075140;28;20031;-62
2021/03/11 10:34:28;;;;;;;129.88;72.50;;;18.20;49.70;;;;;;5074256;28;20078;-56
2021/03/11 10:36:59;;;;;;;141.27;72.22;;;18.40;49.00;;;;;;5075248;28;20103;-56
2021/03/11 10:39:25;;;;;;;136.27;69.10;;;18.60;48.90;;;;;;5075436;28;20047;-61
2021/03/11 10:42:00;;;;;;;129.55;68.47;;;18.60;48.60;;;;;;5074634;28;20469;-58
2021/03/11 10:44:27;;;;;;;149.93;70.50;;;18.60;48.80;;;;;;5075086;28;20028;-58
2021/03/11 10:46:53;;;;;;;139.50;79.15;;;18.70;48.60;;;;;;5074403;28;20523;-60
2021/03/11 10:49:35;;;;;;;181.57;92.85;;;18.80;49.40;;;;;;5074585;28;20029;-54
2021/03/11 10:52:01;;;;;;;195.38;94.80;;;18.80;48.60;;;;;;5075456;28;20111;-56
2021/03/11 10:54:30;;;;;;;284.40;154.23;;;19.00;47.90;;;;;;5073845;28;20519;-57
2021/03/11 10:57:13;;;;;;;248.10;128.40;;;19.10;47.40;;;;;;5074299;28;20068;-59
2021/03/11 10:59:52;;;;;;;236.73;126.53;;;19.10;47.20;;;;;;5074859;28;20021;-54
2021/03/11 11:02:22;;;;;;;197.73;106.00;;;19.10;46.80;;;;;;5074058;28;20032;-59
2021/03/11 11:04:48;;;;;;;173.85;96.07;;;19.20;46.70;;;;;;5074746;28;20040;-57
2021/03/11 11:07:15;;;;;;;163.13;90.10;;;19.30;46.50;;;;;;5074021;28;20039;-56
2021/03/11 11:09:43;;;;;;;152.82;85.80;;;19.20;46.60;;;;;;5073857;28;20028;-57
2021/03/11 11:12:16;;;;;;;136.02;76.53;;;19.20;46.60;;;;;;5074222;28;20025;-55
2021/03/11 11:14:43;;;;;;;129.93;72.18;;;19.20;46.30;;;;;;5074332;28;20033;-53
2021/03/11 11:17:10;;;;;;;130.82;71.80;;;19.20;46.50;;;;;;5074446;28;20060;-52
2021/03/11 11:19:36;;;;;;;125.10;65.47;;;19.10;46.60;;;;;;5074227;28;20036;-52
2021/03/11 11:22:02;;;;;;;118.30;65.15;;;19.10;46.30;;;;;;5074276;28;20025;-54
2021/03/11 11:24:28;;;;;;;110.80;59.47;;;19.00;46.60;;;;;;5074115;28;20499;-54
2021/03/11 11:26:54;;;;;;;100.50;56.78;;;18.90;46.90;;;;;;5073820;28;20049;-52
2021/03/11 11:29:21;;;;;;;89.90;56.45;;;19.00;46.70;;;;;;5074228;28;20082;-52
2021/03/11 11:31:47;;;;;;;85.03;50.30;;;19.00;46.70;;;;;;5074152;28;20059;-53
2021/03/11 11:34:13;;;;;;;87.60;51.35;;;18.90;46.50;;;;;;5073839;28;20029;-56
2021/03/11 11:36:38;;;;;;;91.57;49.72;;;19.00;46.80;;;;;;5072558;28;20035;-53
2021/03/11 11:39:04;;;;;;;84.07;47.13;;;18.90;46.90;;;;;;5073937;28;20063;-56
2021/03/11 11:41:30;;;;;;;80.10;44.67;;;18.80;46.80;;;;;;5074027;28;20029;-54
2021/03/11 11:43:57;;;;;;;77.18;43.85;;;18.80;46.80;;;;;;5074292;28;20035;-56
2021/03/11 11:46:22;;;;;;;80.95;45.10;;;18.80;47.00;;;;;;5073906;28;20052;-56
2021/03/11 11:48:48;;;;;;;75.25;45.45;;;18.70;47.50;;;;;;5073965;28;20354;-54
2021/03/11 11:51:13;;;;;;;90.82;47.22;;;18.70;47.70;;;;;;5073681;28;20028;-55
2021/03/11 11:53:39;;;;;;;80.53;42.28;;;18.70;48.00;;;;;;5073854;28;20025;-55
2021/03/11 11:56:05;;;;;;;79.03;43.75;;;18.60;48.20;;;;;;5073477;28;20036;-55
2021/03/11 11:58:31;;;;;;;83.72;46.63;;;18.70;48.90;;;;;;5073725;28;20041;-55
2021/03/11 12:00:56;;;;;;;91.28;53.22;;;18.70;49.40;;;;;;5073800;28;20029;-56
2021/03/11 12:03:22;;;;;;;111.68;64.63;;;18.80;49.60;;;;;;5073929;28;20103;-55
2021/03/11 12:05:48;;;;;;;116.25;71.30;;;18.90;49.80;;;;;;5072448;28;20472;-51
2021/03/11 12:08:13;;;;;;;154.75;88.63;;;18.90;49.10;;;;;;5073519;28;20465;-55
2021/03/11 12:10:39;;;;;;;149.02;87.78;;;18.80;49.10;;;;;;5073714;28;20448;-57
2021/03/11 12:13:07;;;;;;;147.25;84.72;;;18.70;49.40;;;;;;5073698;28;20035;-53
2021/03/11 12:15:33;;;;;;;148.45;87.22;;;18.60;49.60;;;;;;5073514;28;20033;-57
2021/03/11 12:17:59;;;;;;;136.82;84.78;;;18.60;49.90;;;;;;5073188;28;20532;-59
2021/03/11 12:20:26;;;;;;;140.82;81.50;;;18.50;50.30;;;;;;5073743;28;20028;-58
2021/03/11 12:22:52;;;;;;;135.82;78.63;;;18.40;50.70;;;;;;5073564;28;20118;-58
2021/03/11 12:25:18;;;;;;;135.90;80.55;;;18.50;50.70;;;;;;5073130;28;20449;-59
2021/03/11 12:27:44;;;;;;;132.07;77.90;;;18.50;50.70;;;;;;5073533;28;20052;-58
2021/03/11 12:30:10;;;;;;;75.38;45.03;;;18.60;50.60;;;;;;5073318;28;20389;-58
2021/03/11 12:32:36;;;;;;;82.95;47.53;;;18.50;48.90;;;;;;5073305;28;20028;-58
2021/03/11 12:35:01;;;;;;;90.65;55.33;;;18.30;47.90;;;;;;5073068;28;20028;-57